Amherst, South Dakota
Current Conditions -  °F | °C
As of 6:53 AM on Saturday 20 Dec 2014 (Local Time) from KABR Reporting Station
Haze Haze  
Wind Chill: 16°   Ceiling: 200
Heat Index: 26°   Visibility: 0.75mi
Dew Point: 25°   Wind: 10mph
Humidity: 96%   Direction: 190°S
Pressure: 30.01"   Gusts: NA
Location:  45.74°N, 97.92°W
Report Text: KABR 201253Z AUTO 19009KT 3/4SM BR VV002 M03/M04 A3001 RMK AO2 SLP180 I1001 T10331039
Loading
Personal Weather Stations






























Interactive Weather Map New forecast layout! Learn more

10-Day Weather Forecast

Advertisements
Track Severe Weather on mobile